Time;durP1;ratioP1;P1;durP2;ratioP2;P2;SDS_P1;SDS_P2;PMS_P1;PMS_P2;Temp;Humidity;BMP_temperature;BMP_pressure;BME280_temperature;BME280_humidity;BME280_pressure;Samples;Min_cycle;Max_cycle;Signal;HPM_P1;HPM_P2
2022/05/04 00:01:01;;;;;;;8.90;5.90;;;;;;;10.24;66.45;99103.41;109255;1275;22511;-64
2022/05/04 00:03:29;;;;;;;12.30;6.10;;;;;;;10.16;66.61;99108.26;109129;1276;137943;-64
2022/05/04 00:05:58;;;;;;;8.20;5.80;;;;;;;10.08;66.76;99109.30;109231;1276;22290;-65
2022/05/04 00:08:26;;;;;;;8.50;5.70;;;;;;;10.02;67.06;99113.17;109083;1276;140349;-65
2022/05/04 00:10:55;;;;;;;10.30;6.20;;;;;;;9.92;67.17;99112.15;109211;1277;23155;-65
2022/05/04 00:13:23;;;;;;;10.00;5.60;;;;;;;9.83;67.43;99117.80;109221;1277;22546;-65
2022/05/04 00:15:51;;;;;;;11.10;6.10;;;;;;;9.76;67.65;99118.73;107864;1277;137771;-64
2022/05/04 00:18:19;;;;;;;8.30;5.40;;;;;;;9.69;67.91;99119.56;109140;1276;23286;-64
2022/05/04 00:20:48;;;;;;;8.00;6.10;;;;;;;9.62;67.98;99122.58;108989;1277;138689;-64
2022/05/04 00:23:15;;;;;;;9.30;5.70;;;;;;;9.55;68.12;99120.56;109183;1276;23512;-64
2022/05/04 00:25:43;;;;;;;8.50;5.60;;;;;;;9.49;68.19;99123.56;109050;1276;138512;-64
2022/05/04 00:28:12;;;;;;;8.90;6.40;;;;;;;9.38;68.44;99123.10;109229;1276;22413;-65
2022/05/04 00:30:40;;;;;;;8.60;6.40;;;;;;;9.30;68.57;99128.63;109239;1276;22443;-64
2022/05/04 00:33:08;;;;;;;12.20;7.00;;;;;;;9.22;68.62;99124.66;108981;1277;138840;-64
2022/05/04 00:35:36;;;;;;;8.50;5.70;;;;;;;9.16;69.01;99129.82;109202;1277;22723;-65
2022/05/04 00:38:04;;;;;;;9.30;6.00;;;;;;;9.11;69.22;99136.83;109131;1276;139014;-64
2022/05/04 00:40:32;;;;;;;14.20;6.90;;;;;;;9.06;69.47;99139.19;109052;1277;22471;-64
2022/05/04 00:43:00;;;;;;;7.40;5.80;;;;;;;9.03;69.50;99139.32;109179;1277;22417;-65
2022/05/04 00:45:29;;;;;;;14.60;6.70;;;;;;;8.99;69.73;99139.38;109202;1275;139554;-66
2022/05/04 00:47:57;;;;;;;10.30;5.70;;;;;;;8.99;69.22;99140.19;109311;1276;22436;-65
2022/05/04 00:50:25;;;;;;;15.50;6.40;;;;;;;9.04;68.88;99140.16;109234;1276;138164;-65
2022/05/04 00:52:54;;;;;;;12.80;5.50;;;;;;;9.11;68.75;99139.17;109347;1276;22416;-65
2022/05/04 00:55:22;;;;;;;12.80;6.30;;;;;;;9.19;68.04;99144.47;109326;1275;22416;-66
2022/05/04 01:00:37;;;;;;;7.00;5.30;;;;;;;9.49;66.23;99140.85;109109;1277;22437;-66
2022/05/04 01:03:06;;;;;;;6.60;5.30;;;;;;;9.67;65.38;99144.85;109252;1274;138173;-66
2022/05/04 01:05:34;;;;;;;11.40;5.90;;;;;;;9.83;64.49;99144.05;109343;1276;23572;-66
2022/05/04 01:08:03;;;;;;;11.10;5.50;;;;;;;9.97;63.88;99143.41;109242;1275;138347;-66
2022/05/04 01:10:31;;;;;;;8.10;5.20;;;;;;;10.06;63.31;99138.52;109305;1276;22383;-66
2022/05/04 01:13:00;;;;;;;11.40;5.30;;;;;;;10.17;62.90;99143.99;109252;1275;22508;-66
2022/05/04 01:15:28;;;;;;;8.30;5.70;;;;;;;10.26;62.29;99144.09;108618;1277;137869;-65
2022/05/04 01:17:56;;;;;;;9.10;5.90;;;;;;;10.37;61.95;99144.96;109212;1274;23268;-65
2022/05/04 01:20:24;;;;;;;10.70;5.90;;;;;;;10.45;61.59;99144.13;109216;1276;138295;-66
2022/05/04 01:22:53;;;;;;;15.80;5.90;;;;;;;10.52;61.04;99142.79;109326;1275;22266;-66
2022/05/04 01:25:21;;;;;;;9.70;6.20;;;;;;;10.61;60.56;99148.98;109300;1276;23234;-65
2022/05/04 01:27:50;;;;;;;12.50;5.80;;;;;;;10.68;60.58;99148.88;109197;1274;138108;-65
2022/05/04 01:30:18;;;;;;;11.60;6.30;;;;;;;10.73;60.32;99152.44;109229;1277;22458;-65
2022/05/04 01:32:46;;;;;;;8.40;5.50;;;;;;;10.76;59.97;99145.48;109202;1277;138453;-64
2022/05/04 01:35:14;;;;;;;8.90;6.10;;;;;;;10.81;59.83;99149.59;109288;1275;22520;-65
2022/05/04 01:37:44;;;;;;;12.60;6.10;;;;;;;10.85;59.69;99154.77;109205;1276;137934;-64
2022/05/04 01:40:12;;;;;;;8.60;5.80;;;;;;;10.86;59.42;99148.02;109219;1276;22384;-65
2022/05/04 01:42:41;;;;;;;7.80;5.40;;;;;;;10.88;59.16;99155.54;109260;1277;23304;-65
2022/05/04 01:45:09;;;;;;;9.50;5.10;;;;;;;10.89;59.09;99159.14;109231;1275;138498;-65
2022/05/04 01:47:38;;;;;;;7.40;5.00;;;;;;;10.90;58.94;99153.05;109339;1276;22443;-65
2022/05/04 01:50:06;;;;;;;11.50;5.80;;;;;;;10.92;58.34;99157.85;109085;1275;138896;-65
2022/05/04 01:52:34;;;;;;;9.00;5.60;;;;;;;10.93;58.03;99154.91;109120;1277;23262;-65
2022/05/04 01:55:02;;;;;;;6.70;4.90;;;;;;;10.95;58.04;99152.30;109128;1277;22405;-65
2022/05/04 01:57:31;;;;;;;8.50;5.30;;;;;;;10.96;58.27;99158.18;109059;1277;137653;-65
2022/05/04 01:59:59;;;;;;;9.20;5.40;;;;;;;10.97;58.22;99162.91;109238;1276;22522;-65
2022/05/04 02:02:30;;;;;;;8.60;5.60;;;;;;;10.94;58.13;99163.48;109112;1277;138190;-64
2022/05/04 02:04:58;;;;;;;7.50;5.20;;;;;;;10.91;58.08;99167.55;109188;1277;22428;-65
2022/05/04 02:07:27;;;;;;;8.40;4.70;;;;;;;10.89;58.24;99174.67;109194;1277;22474;-64
2022/05/04 02:09:56;;;;;;;7.70;4.60;;;;;;;10.87;58.22;99174.77;109129;1276;137608;-65
2022/05/04 02:12:26;;;;;;;8.00;4.80;;;;;;;10.86;58.31;99172.91;109244;1276;23085;-65
2022/05/04 02:14:55;;;;;;;9.70;5.00;;;;;;;10.81;58.12;99173.02;109130;1277;137466;-65
2022/05/04 02:17:23;;;;;;;6.20;4.60;;;;;;;10.77;58.18;99180.38;109230;1277;23593;-64
2022/05/04 02:19:51;;;;;;;6.60;5.00;;;;;;;10.71;58.24;99184.98;109174;1276;137799;-64
2022/05/04 02:22:20;;;;;;;7.10;4.80;;;;;;;10.64;58.35;99187.46;109225;1274;22475;-64
2022/05/04 02:24:49;;;;;;;9.60;4.40;;;;;;;10.61;58.21;99191.64;109203;1276;22417;-64
2022/05/04 02:27:17;;;;;;;11.20;5.70;;;;;;;10.57;58.44;99189.00;109072;1277;138329;-64
2022/05/04 02:29:45;;;;;;;7.10;4.70;;;;;;;10.54;58.23;99188.78;109229;1276;22422;-64
2022/05/04 02:32:12;;;;;;;10.50;4.60;;;;;;;10.52;58.31;99191.29;108910;1277;137775;-63
2022/05/04 02:40:14;;;;;;;6.60;4.40;;;;;;;10.40;58.36;99201.83;109132;1277;137576;-64
2022/05/04 02:42:42;;;;;;;7.20;4.10;;;;;;;10.36;58.33;99203.51;109260;1276;22530;-63
2022/05/04 02:45:10;;;;;;;10.20;4.30;;;;;;;10.36;58.41;99207.83;109091;1276;139173;-64
2022/05/04 02:47:39;;;;;;;6.60;4.40;;;;;;;10.31;58.31;99210.07;109157;1277;22433;-63
2022/05/04 02:50:14;;;;;;;12.80;4.60;;;;;;;10.28;58.35;99209.13;109098;1276;137767;-63
2022/05/04 02:52:42;;;;;;;7.40;4.80;;;;;;;10.26;58.50;99210.24;109205;1277;22578;-64
2022/05/04 02:55:10;;;;;;;8.90;4.50;;;;;;;10.23;58.51;99212.27;109212;1277;22445;-64
2022/05/04 02:57:39;;;;;;;13.80;5.50;;;;;;;10.21;58.61;99218.84;109044;1276;138407;-64
2022/05/04 03:00:07;;;;;;;13.70;5.20;;;;;;;10.19;58.55;99222.80;109227;1277;22441;-63
2022/05/04 03:02:35;;;;;;;8.80;4.70;;;;;;;10.17;58.68;99226.29;109100;1277;138333;-64
2022/05/04 03:05:05;;;;;;;9.80;5.20;;;;;;;10.15;58.68;99224.20;109208;1277;22429;-64
2022/05/04 03:07:33;;;;;;;9.90;4.50;;;;;;;10.16;58.81;99225.95;109254;1277;22543;-64
2022/05/04 03:10:01;;;;;;;10.60;4.90;;;;;;;10.16;58.75;99233.02;109149;1276;137227;-64
2022/05/04 03:12:32;;;;;;;14.30;5.10;;;;;;;10.14;58.59;99234.65;109245;1276;22451;-64
2022/05/04 03:15:00;;;;;;;9.70;4.70;;;;;;;10.13;58.66;99234.31;109109;1276;138379;-64
2022/05/04 03:17:28;;;;;;;8.70;4.60;;;;;;;10.13;58.50;99235.62;109023;1277;22411;-64
2022/05/04 03:19:58;;;;;;;9.30;5.20;;;;;;;10.14;58.43;99242.64;109129;1277;138860;-64
2022/05/04 03:22:26;;;;;;;12.80;5.60;;;;;;;10.14;58.63;99247.28;109251;1276;22549;-64
2022/05/04 03:24:54;;;;;;;7.40;4.70;;;;;;;10.15;58.53;99251.64;109193;1276;22534;-64
2022/05/04 03:27:22;;;;;;;7.50;4.60;;;;;;;10.14;58.60;99256.15;109165;1277;139436;-64
2022/05/04 03:29:50;;;;;;;11.10;4.80;;;;;;;10.15;58.52;99263.35;109208;1277;22447;-64
2022/05/04 03:32:19;;;;;;;8.10;4.80;;;;;;;10.15;58.61;99262.37;109125;1276;137631;-64
2022/05/04 03:34:47;;;;;;;9.40;4.70;;;;;;;10.17;58.79;99263.05;109263;1275;23738;-64
2022/05/04 03:37:15;;;;;;;10.30;4.80;;;;;;;10.21;58.67;99260.23;109201;1276;22955;-64
2022/05/04 03:39:43;;;;;;;9.60;4.70;;;;;;;10.25;58.36;99266.45;109139;1276;137577;-64
2022/05/04 03:42:12;;;;;;;10.20;5.00;;;;;;;10.28;58.31;99267.39;108837;1277;22428;-64
2022/05/04 03:44:40;;;;;;;9.20;4.60;;;;;;;10.33;58.29;99271.69;109052;1277;138470;-64
2022/05/04 03:47:08;;;;;;;12.00;4.40;;;;;;;10.36;58.60;99275.24;109155;1277;22435;-64
2022/05/04 03:49:36;;;;;;;9.70;4.80;;;;;;;10.37;58.42;99281.14;109211;1276;22425;-64
2022/05/04 03:52:05;;;;;;;10.30;4.40;;;;;;;10.38;58.22;99282.66;109161;1276;137715;-64
2022/05/04 03:54:33;;;;;;;14.40;4.20;;;;;;;10.39;58.17;99282.98;109277;1276;22468;-64
2022/05/04 03:57:01;;;;;;;8.10;4.10;;;;;;;10.40;58.35;99285.82;109202;1274;137454;-64
2022/05/04 03:59:31;;;;;;;11.10;5.10;;;;;;;10.40;58.40;99290.73;109327;1274;22766;-64
2022/05/04 04:01:59;;;;;;;8.60;4.70;;;;;;;10.42;58.58;99288.72;109144;1275;138540;-64
2022/05/04 04:04:27;;;;;;;10.00;4.70;;;;;;;10.43;58.45;99292.65;109232;1276;22477;-64
2022/05/04 04:06:55;;;;;;;10.20;4.10;;;;;;;10.48;58.34;99294.00;109202;1276;22423;-64
2022/05/04 04:09:23;;;;;;;9.50;4.30;;;;;;;10.51;58.22;99299.53;109112;1276;137862;-64
2022/05/04 04:11:51;;;;;;;8.20;4.40;;;;;;;10.56;58.18;99298.55;109270;1276;22441;-64
2022/05/04 04:14:20;;;;;;;8.30;4.10;;;;;;;10.60;58.06;99296.41;109073;1276;137503;-64
2022/05/04 04:16:48;;;;;;;15.00;4.60;;;;;;;10.65;58.07;99297.70;106235;1276;25893;-64
2022/05/04 04:19:16;;;;;;;10.40;4.90;;;;;;;10.70;58.30;99300.99;104847;1277;24347;-64
2022/05/04 04:21:53;;;;;;;8.70;4.70;;;;;;;10.75;58.10;99305.65;109011;1276;139462;-64
2022/05/04 04:24:22;;;;;;;6.80;4.00;;;;;;;10.78;58.13;99306.98;109224;1276;22448;-64
2022/05/04 04:26:50;;;;;;;10.60;4.40;;;;;;;10.79;57.88;99306.77;109004;1276;138037;-64
2022/05/04 04:29:18;;;;;;;6.80;4.40;;;;;;;10.80;58.07;99311.30;109193;1275;22255;-64
2022/05/04 04:31:46;;;;;;;13.00;4.10;;;;;;;10.82;58.20;99311.04;109124;1277;22437;-64
2022/05/04 04:34:15;;;;;;;6.00;4.00;;;;;;;10.85;57.92;99313.77;109098;1276;139098;-64
2022/05/04 04:36:43;;;;;;;9.90;4.20;;;;;;;10.87;58.04;99309.31;109273;1275;22432;-65
2022/05/04 04:39:11;;;;;;;10.90;4.50;;;;;;;10.91;57.71;99314.58;109100;1276;138538;-65
2022/05/04 04:41:40;;;;;;;11.10;4.90;;;;;;;10.95;57.64;99318.63;109177;1276;23123;-65
2022/05/04 04:44:08;;;;;;;9.20;4.80;;;;;;;10.98;57.81;99319.23;109099;1276;139006;-65
2022/05/04 04:46:37;;;;;;;13.40;4.40;;;;;;;11.06;57.79;99317.09;109203;1276;22600;-65
2022/05/04 04:49:05;;;;;;;9.80;4.80;;;;;;;11.14;57.62;99319.18;109205;1276;22429;-65
2022/05/04 04:51:33;;;;;;;9.50;4.80;;;;;;;11.25;57.33;99313.67;109113;1276;137509;-63
2022/05/04 04:54:01;;;;;;;10.30;4.60;;;;;;;11.46;57.51;99315.54;109210;1276;23184;-65
2022/05/04 04:56:29;;;;;;;9.50;4.80;;;;;;;11.75;56.34;99325.55;109128;1275;137478;-65
2022/05/04 04:58:57;;;;;;;12.60;5.00;;;;;;;12.00;55.80;99322.11;109215;1276;22415;-65
2022/05/04 05:01:25;;;;;;;11.10;5.20;;;;;;;12.25;55.32;99325.11;109227;1276;22312;-65
2022/05/04 05:03:54;;;;;;;11.50;5.10;;;;;;;12.51;54.76;99319.30;109090;1276;137869;-65
2022/05/04 05:06:24;;;;;;;11.60;4.10;;;;;;;12.76;54.03;99322.04;109153;1276;23011;-65
2022/05/04 05:08:53;;;;;;;8.10;4.90;;;;;;;13.02;53.63;99325.42;109020;1276;138850;-65
2022/05/04 05:11:21;;;;;;;10.10;4.90;;;;;;;13.25;52.59;99322.17;109187;1276;22434;-65
2022/05/04 05:16:36;;;;;;;12.40;5.20;;;;;;;13.48;51.50;99328.10;108920;1277;272920;-65
2022/05/04 05:19:46;;;;;;;12.40;5.00;;;;;;;13.65;50.99;99330.18;101855;1309;545284;-64
2022/05/04 05:22:14;;;;;;;10.80;5.10;;;;;;;13.69;50.73;99333.35;103927;1286;137951;-64
2022/05/04 05:24:42;;;;;;;9.20;5.40;;;;;;;13.76;50.76;99337.36;103949;1286;25118;-64
2022/05/04 05:27:10;;;;;;;8.80;4.50;;;;;;;13.90;50.48;99336.27;103886;1287;138411;-64
2022/05/04 05:29:38;;;;;;;10.00;4.20;;;;;;;14.02;49.82;99333.83;108280;1286;23718;-65
2022/05/04 05:32:07;;;;;;;8.20;4.70;;;;;;;14.11;49.78;99335.26;108358;1285;22424;-66
2022/05/04 05:34:34;;;;;;;14.10;5.20;;;;;;;14.22;49.44;99336.81;108312;1283;172208;-65
2022/05/04 05:37:03;;;;;;;15.60;6.00;;;;;;;14.33;49.02;99339.51;108597;1283;22460;-65
2022/05/04 05:39:31;;;;;;;11.70;6.00;;;;;;;14.46;48.98;99341.84;109121;1276;138133;-65
2022/05/04 05:41:59;;;;;;;13.00;5.50;;;;;;;14.59;48.82;99343.77;109295;1276;22613;-65
2022/05/04 05:44:30;;;;;;;10.30;5.10;;;;;;;14.72;48.57;99349.21;109182;1276;138189;-64
2022/05/04 05:47:05;;;;;;;13.00;5.50;;;;;;;14.83;48.20;99350.59;109306;1276;23558;-65
2022/05/04 05:49:32;;;;;;;13.80;6.20;;;;;;;14.93;47.82;99347.85;109272;1276;22427;-64
2022/05/04 05:52:01;;;;;;;16.50;6.30;;;;;;;14.88;47.35;99352.56;109162;1277;137330;-65
2022/05/04 05:54:31;;;;;;;22.10;6.60;;;;;;;14.77;47.93;99358.66;109257;1276;23175;-65
2022/05/04 05:57:00;;;;;;;13.30;6.10;;;;;;;14.73;48.10;99355.30;109182;1276;137183;-65
2022/05/04 05:59:28;;;;;;;23.20;6.90;;;;;;;14.70;48.04;99358.95;109261;1276;22454;-65
2022/05/04 06:01:56;;;;;;;13.40;6.10;;;;;;;14.65;47.94;99359.00;109249;1277;23305;-65
2022/05/04 06:04:25;;;;;;;19.40;7.40;;;;;;;14.58;47.87;99358.62;109150;1276;137931;-65
2022/05/04 06:06:53;;;;;;;15.40;6.90;;;;;;;14.50;47.93;99361.27;109287;1275;22457;-65
2022/05/04 06:09:21;;;;;;;15.60;6.80;;;;;;;14.43;48.36;99362.09;109028;1276;137163;-65
2022/05/04 06:11:52;;;;;;;13.50;6.50;;;;;;;14.40;48.82;99363.50;109206;1277;22448;-65
2022/05/04 06:14:20;;;;;;;19.20;7.50;;;;;;;14.40;48.89;99363.61;109040;1277;138420;-65
2022/05/04 06:16:50;;;;;;;12.70;5.70;;;;;;;14.43;48.95;99366.04;106148;1277;22561;-63
2022/05/04 06:19:18;;;;;;;12.00;4.90;;;;;;;14.42;48.80;99366.31;104738;1278;24902;-64
2022/05/04 06:21:46;;;;;;;12.50;4.90;;;;;;;14.39;48.61;99366.61;108952;1277;137643;-64
2022/05/04 06:24:18;;;;;;;10.60;4.80;;;;;;;14.37;48.26;99367.16;109157;1277;22524;-64
2022/05/04 06:26:46;;;;;;;16.10;5.40;;;;;;;14.32;48.14;99363.73;109238;1273;138397;-64
2022/05/04 06:29:14;;;;;;;8.50;4.30;;;;;;;14.28;48.13;99364.45;109426;1273;22435;-64
2022/05/04 06:34:30;;;;;;;9.50;5.20;;;;;;;14.28;48.21;99366.85;109290;1274;137599;-64
2022/05/04 06:36:58;;;;;;;8.20;4.50;;;;;;;14.31;47.21;99364.73;109430;1272;22493;-64
2022/05/04 06:39:26;;;;;;;10.50;4.50;;;;;;;14.31;47.16;99367.91;109321;1274;137887;-64
2022/05/04 06:41:54;;;;;;;11.50;4.70;;;;;;;14.29;47.43;99368.02;109397;1274;23247;-64
2022/05/04 06:44:22;;;;;;;13.20;4.30;;;;;;;14.32;46.91;99371.47;109295;1274;138349;-64
2022/05/04 06:46:50;;;;;;;14.00;6.40;;;;;;;14.32;47.10;99373.72;109430;1274;22428;-64
2022/05/04 06:49:18;;;;;;;13.50;5.90;;;;;;;14.32;47.22;99377.77;109426;1274;22487;-64
2022/05/04 06:51:46;;;;;;;14.30;6.80;;;;;;;14.32;47.64;99375.90;109307;1274;139967;-64
2022/05/04 06:54:14;;;;;;;12.50;4.80;;;;;;;14.35;47.84;99375.56;109425;1273;22857;-64
2022/05/04 06:56:51;;;;;;;14.20;6.00;;;;;;;14.36;46.90;99384.44;109309;1274;138265;-64
2022/05/04 06:59:19;;;;;;;9.50;4.80;;;;;;;14.35;46.98;99381.32;109478;1273;22386;-64
2022/05/04 07:01:48;;;;;;;14.50;4.90;;;;;;;14.34;47.26;99378.20;109412;1273;23307;-65
2022/05/04 07:04:16;;;;;;;12.40;5.20;;;;;;;14.33;47.42;99383.52;109104;1275;138492;-64
2022/05/04 07:06:45;;;;;;;12.60;4.90;;;;;;;14.34;47.74;99382.25;109389;1274;22445;-64
2022/05/04 07:09:13;;;;;;;11.20;5.30;;;;;;;14.37;47.66;99383.71;109307;1274;138104;-64
2022/05/04 07:11:41;;;;;;;13.40;5.00;;;;;;;14.39;47.62;99386.67;109437;1274;23205;-65
2022/05/04 07:14:16;;;;;;;8.00;3.70;;;;;;;14.38;47.71;99390.02;109442;1274;22437;-65
2022/05/04 07:16:45;;;;;;;7.80;3.80;;;;;;;14.40;48.24;99395.23;109312;1274;138571;-65
2022/05/04 07:19:14;;;;;;;10.80;5.20;;;;;;;14.46;47.69;99396.05;109396;1274;23108;-65
2022/05/04 07:21:43;;;;;;;12.80;5.20;;;;;;;14.46;47.80;99396.60;109330;1274;137503;-65
2022/05/04 07:24:11;;;;;;;13.60;5.10;;;;;;;14.48;47.90;99401.41;109426;1273;22404;-65
2022/05/04 07:26:40;;;;;;;13.20;5.50;;;;;;;14.54;47.39;99405.61;109329;1274;138407;-65
2022/05/04 07:29:08;;;;;;;8.50;4.00;;;;;;;14.57;46.76;99404.42;109445;1272;22476;-65
2022/05/04 07:31:42;;;;;;;15.60;4.80;;;;;;;14.57;47.39;99405.46;109434;1274;22431;-65
2022/05/04 07:34:11;;;;;;;8.80;4.30;;;;;;;14.64;47.02;99405.40;109298;1274;136982;-65
2022/05/04 07:36:40;;;;;;;5.00;2.90;;;;;;;14.73;47.08;99413.11;109443;1274;22463;-66
2022/05/04 07:39:08;;;;;;;12.60;3.90;;;;;;;14.80;46.07;99415.67;109308;1274;138034;-64
2022/05/04 07:44:23;;;;;;;9.60;3.50;;;;;;;14.85;45.86;99411.75;109409;1274;23553;-64
2022/05/04 07:46:51;;;;;;;6.30;3.00;;;;;;;14.85;46.25;99411.30;109319;1274;136882;-65
2022/05/04 07:49:18;;;;;;;6.70;3.60;;;;;;;14.88;46.16;99414.39;109438;1273;22429;-65
2022/05/04 07:51:47;;;;;;;7.90;2.50;;;;;;;14.89;46.61;99413.83;109326;1274;136880;-65
2022/05/04 07:54:15;;;;;;;6.30;2.10;;;;;;;14.93;46.26;99419.34;109389;1273;22435;-65
2022/05/04 07:56:43;;;;;;;2.90;1.80;;;;;;;14.92;45.75;99421.11;109272;1274;137270;-64
2022/05/04 07:59:11;;;;;;;5.30;1.70;;;;;;;14.84;45.77;99426.61;109423;1274;22451;-64
2022/05/04 08:04:26;;;;;;;6.40;2.20;;;;;;;14.73;46.03;99424.63;109326;1273;137102;-65
2022/05/04 08:06:54;;;;;;;2.60;1.90;;;;;;;14.75;46.09;99427.40;109381;1274;22408;-65
2022/05/04 08:09:22;;;;;;;3.00;1.70;;;;;;;14.80;45.52;99424.02;109276;1274;137352;-65
2022/05/04 08:11:51;;;;;;;3.30;2.10;;;;;;;14.83;45.33;99419.23;109440;1274;22460;-64
2022/05/04 08:14:19;;;;;;;9.50;2.40;;;;;;;14.86;45.72;99424.00;109463;1274;22440;-65
2022/05/04 08:16:48;;;;;;;5.50;2.10;;;;;;;14.90;45.79;99421.19;106305;1274;137368;-64
2022/05/04 08:19:17;;;;;;;4.00;2.00;;;;;;;14.97;45.53;99424.14;104933;1273;23985;-63
2022/05/04 08:21:46;;;;;;;4.50;1.90;;;;;;;15.00;44.76;99430.16;104792;1274;138063;-64
2022/05/04 08:24:15;;;;;;;4.60;1.90;;;;;;;14.95;44.52;99431.17;109367;1274;23267;-64
2022/05/04 08:26:43;;;;;;;3.90;1.70;;;;;;;14.88;44.42;99438.15;109316;1274;138566;-64
2022/05/04 08:29:11;;;;;;;8.70;3.50;;;;;;;14.80;44.85;99445.08;109438;1274;22397;-64
2022/05/04 08:31:39;;;;;;;14.50;4.40;;;;;;;14.72;44.72;99444.38;109389;1274;22485;-64
2022/05/04 08:34:08;;;;;;;11.50;3.50;;;;;;;14.60;44.77;99446.41;109268;1273;137520;-64
2022/05/04 08:36:37;;;;;;;6.70;2.80;;;;;;;14.48;44.98;99451.25;109435;1274;22462;-64
2022/05/04 08:39:07;;;;;;;6.70;2.70;;;;;;;14.39;45.23;99452.08;109274;1273;137269;-64
2022/05/04 08:41:39;;;;;;;10.40;3.60;;;;;;;14.33;45.16;99455.94;109446;1274;23180;-64
2022/05/04 08:44:08;;;;;;;7.20;3.10;;;;;;;14.29;45.13;99459.63;109401;1274;22554;-65
2022/05/04 08:46:41;;;;;;;12.10;2.90;;;;;;;14.27;44.96;99455.33;109319;1273;137406;-63
2022/05/04 08:49:11;;;;;;;5.30;2.70;;;;;;;14.23;44.87;99455.51;109426;1274;22400;-64
2022/05/04 08:51:39;;;;;;;4.60;2.20;;;;;;;14.24;45.19;99459.61;109295;1272;137074;-64
2022/05/04 08:54:08;;;;;;;6.40;2.20;;;;;;;14.28;45.20;99461.67;109408;1273;23683;-64
2022/05/04 08:56:36;;;;;;;7.50;1.50;;;;;;;14.32;44.60;99461.70;109318;1273;138657;-63
2022/05/04 08:59:05;;;;;;;10.10;2.00;;;;;;;14.34;44.59;99460.36;109427;1273;22725;-63
2022/05/04 09:01:34;;;;;;;7.20;2.20;;;;;;;14.39;45.03;99466.23;109451;1273;22554;-64
2022/05/04 09:04:03;;;;;;;2.90;1.70;;;;;;;14.47;44.92;99467.05;109299;1274;138241;-64
2022/05/04 09:06:32;;;;;;;8.60;2.90;;;;;;;14.54;44.65;99456.05;109425;1274;22398;-64
2022/05/04 09:09:08;;;;;;;8.10;2.20;;;;;;;14.60;45.02;99460.27;109264;1274;137576;-64
2022/05/04 09:11:37;;;;;;;6.20;2.40;;;;;;;14.68;44.03;99455.95;109381;1273;23614;-64
2022/05/04 09:14:09;;;;;;;3.50;1.60;;;;;;;14.69;42.72;99458.84;109410;1274;22534;-64
2022/05/04 09:16:37;;;;;;;3.20;1.50;;;;;;;14.74;42.70;99465.80;106621;1273;138319;-64
2022/05/04 09:19:10;;;;;;;8.70;2.10;;;;;;;14.81;42.82;99463.30;109326;1273;22695;-64
2022/05/04 09:21:39;;;;;;;8.00;2.40;;;;;;;14.89;41.91;99466.56;109279;1273;137406;-65
2022/05/04 09:24:07;;;;;;;3.60;1.80;;;;;;;14.93;42.09;99463.34;109397;1273;23221;-65
2022/05/04 09:26:40;;;;;;;4.30;1.50;;;;;;;15.01;41.22;99463.16;109246;1273;137219;-64
2022/05/04 09:29:10;;;;;;;3.60;1.40;;;;;;;15.09;40.31;99466.88;109357;1274;23261;-64
2022/05/04 09:31:44;;;;;;;2.60;1.10;;;;;;;15.15;40.77;99461.82;109386;1273;22553;-64
2022/05/04 09:34:13;;;;;;;3.10;1.70;;;;;;;15.20;39.73;99453.42;109283;1274;138731;-64
2022/05/04 09:45:11;;;;;;;10.50;3.10;;;;;;;15.51;41.06;99465.73;109300;1273;138635;-65
2022/05/04 09:47:47;;;;;;;6.00;2.00;;;;;;;15.47;41.59;99463.41;109397;1273;22525;-65
2022/05/04 09:50:17;;;;;;;4.60;1.80;;;;;;;15.39;41.55;99465.59;109432;1273;22501;-64
2022/05/04 09:52:49;;;;;;;5.30;2.10;;;;;;;15.33;41.35;99466.73;109319;1273;137967;-65
2022/05/04 09:55:24;;;;;;;5.10;1.60;;;;;;;15.29;41.21;99464.71;109406;1273;22290;-65
2022/05/04 09:57:54;;;;;;;3.90;2.40;;;;;;;15.27;41.30;99470.89;109263;1273;138264;-65
2022/05/04 10:00:24;;;;;;;6.20;1.90;;;;;;;15.27;41.36;99466.88;109319;1273;23467;-66
2022/05/04 10:02:53;;;;;;;8.00;1.80;;;;;;;15.28;41.50;99468.95;109305;1273;138925;-64
2022/05/04 10:05:21;;;;;;;6.60;2.20;;;;;;;15.31;41.37;99467.70;109414;1273;22289;-65
2022/05/04 10:07:50;;;;;;;5.10;2.10;;;;;;;15.31;41.23;99463.08;109404;1273;22600;-65
2022/05/04 10:10:24;;;;;;;4.60;2.30;;;;;;;15.30;41.41;99466.23;109277;1273;137246;-65
2022/05/04 10:12:53;;;;;;;2.40;1.30;;;;;;;15.30;41.49;99461.23;109313;1273;22557;-65
2022/05/04 10:15:21;;;;;;;3.70;1.80;;;;;;;15.34;41.85;99466.95;109341;1273;137399;-65
2022/05/04 10:18:04;;;;;;;12.90;2.30;;;;;;;15.42;40.82;99463.59;109411;1273;23450;-67
2022/05/04 10:20:41;;;;;;;5.10;1.40;;;;;;;15.46;40.58;99466.39;109308;1273;137917;-66
2022/05/04 10:23:14;;;;;;;3.30;1.10;;;;;;;15.45;40.36;99469.70;109269;1273;22539;-67
2022/05/04 10:25:44;;;;;;;6.30;1.40;;;;;;;15.39;39.96;99471.41;109404;1273;22426;-65
2022/05/04 10:28:14;;;;;;;4.40;2.60;;;;;;;15.33;40.04;99476.19;109297;1273;137367;-65
2022/05/04 10:30:55;;;;;;;3.40;1.30;;;;;;;15.26;39.80;99478.27;109395;1273;22498;-65
2022/05/04 10:33:32;;;;;;;1.90;1.20;;;;;;;15.17;39.68;99471.34;109297;1273;137531;-64
2022/05/04 10:36:27;;;;;;;7.20;1.40;;;;;;;15.14;40.27;99476.45;109432;1273;22447;-65
2022/05/04 10:38:57;;;;;;;1.60;0.90;;;;;;;15.17;39.49;99475.70;109260;1273;138454;-65
2022/05/04 10:41:37;;;;;;;9.10;1.30;;;;;;;15.25;38.87;99478.48;109400;1273;22438;-65
2022/05/04 10:44:09;;;;;;;5.90;1.30;;;;;;;15.31;38.39;99476.05;109326;1273;22462;-65
2022/05/04 10:46:41;;;;;;;2.40;1.50;;;;;;;15.32;38.30;99477.79;109283;1273;137314;-65
2022/05/04 10:49:13;;;;;;;2.40;1.20;;;;;;;15.30;38.43;99475.13;109335;1273;22409;-64
2022/05/04 10:51:43;;;;;;;1.90;1.00;;;;;;;15.26;38.61;99467.66;109303;1272;137524;-64
2022/05/04 10:54:13;;;;;;;3.90;1.40;;;;;;;15.22;38.36;99466.15;109392;1273;22555;-64
2022/05/04 10:56:46;;;;;;;1.90;1.20;;;;;;;15.17;37.38;99470.69;109291;1272;140504;-64
2022/05/04 10:59:26;;;;;;;7.70;1.50;;;;;;;15.16;37.35;99468.01;109445;1273;22441;-65
2022/05/04 11:02:04;;;;;;;1.80;1.30;;;;;;;15.20;37.66;99463.42;109398;1273;22426;-65
2022/05/04 11:04:33;;;;;;;2.80;1.20;;;;;;;15.27;37.40;99469.73;109294;1273;137234;-65
2022/05/04 11:07:08;;;;;;;7.00;1.30;;;;;;;15.36;36.88;99469.84;109381;1273;23234;-65
2022/05/04 11:09:42;;;;;;;6.10;1.40;;;;;;;15.48;36.55;99467.45;109277;1273;139306;-65
2022/05/04 11:12:12;;;;;;;4.20;1.40;;;;;;;15.57;35.86;99463.80;109426;1273;23109;-64
2022/05/04 11:14:40;;;;;;;2.10;1.20;;;;;;;15.57;36.09;99465.05;109285;1273;139901;-64
2022/05/04 11:17:10;;;;;;;2.50;1.10;;;;;;;15.57;36.47;99457.91;109439;1273;22428;-65
2022/05/04 11:19:48;;;;;;;2.20;1.30;;;;;;;15.57;36.88;99455.60;109397;1273;22427;-64
2022/05/04 11:22:17;;;;;;;3.60;1.30;;;;;;;15.60;36.55;99463.73;109305;1273;139176;-65
2022/05/04 11:25:06;;;;;;;4.20;1.60;;;;;;;15.58;37.03;99461.30;109391;1273;22453;-64
2022/05/04 11:27:34;;;;;;;1.80;1.30;;;;;;;15.58;36.58;99457.61;109263;1273;137244;-64
2022/05/04 11:30:04;;;;;;;4.50;1.50;;;;;;;15.60;36.87;99458.35;109256;1275;23234;-64
2022/05/04 11:32:33;;;;;;;4.70;1.40;;;;;;;15.60;36.43;99458.57;109285;1273;139829;-64
2022/05/04 11:35:01;;;;;;;4.40;1.20;;;;;;;15.59;36.85;99456.16;109410;1273;22509;-64
2022/05/04 11:37:31;;;;;;;11.00;1.70;;;;;;;15.61;36.54;99456.63;109405;1273;23354;-64
2022/05/04 11:40:10;;;;;;;3.50;1.40;;;;;;;15.67;36.79;99457.89;109282;1273;137917;-64
2022/05/04 11:42:39;;;;;;;3.10;1.80;;;;;;;15.75;36.90;99463.83;109397;1273;22415;-64
2022/05/04 11:45:08;;;;;;;4.50;1.80;;;;;;;15.81;36.76;99460.64;109120;1276;138028;-64
2022/05/04 11:47:36;;;;;;;3.00;1.30;;;;;;;15.83;36.56;99452.86;109406;1273;22427;-64
2022/05/04 11:50:05;;;;;;;7.80;2.40;;;;;;;15.81;36.32;99457.48;109308;1273;22502;-64
2022/05/04 11:52:34;;;;;;;7.40;1.60;;;;;;;15.76;36.78;99465.57;109228;1273;138220;-64
2022/05/04 11:55:02;;;;;;;2.70;1.50;;;;;;;15.67;35.95;99453.39;109419;1273;23476;-64
2022/05/04 11:57:41;;;;;;;2.10;1.40;;;;;;;15.70;36.12;99454.73;109284;1273;137602;-64